Ordot, Guam
Current Conditions -  °F | °C
As of 12:54 PM on Saturday 25 Oct 2014 (Local Time) from PGUM Reporting Station
Broken Clouds Broken Clouds  
Wind Chill: 31°   Ceiling: 5500
Heat Index: 38°   Visibility: 10mi
Dew Point: 25°   Wind: 16mph
Humidity: 70%   Direction: 80°E
Pressure: 29.89"   Gusts: NA
Location:  13.4744°N, 144.7478°E
Report Text: PGUM 250254Z 08014KT 10SM FEW020 SCT049 BKN055 31/25 A2989 RMK AO2 SLP112 60001 T03110250 58016 $
Loading
Personal Weather Stations






























Interactive Weather Map
Tropical Storm Tracking
New forecast layout! Learn more

10-Day Weather Forecast

Advertisements
Track Severe Weather on mobile